createdAt,value
2019-05-05T00:01:36.083Z,95771.19
2019-05-05T00:04:12.052Z,95777.45
2019-05-05T00:06:41.186Z,95776.14
2019-05-05T00:09:09.760Z,95778.13
2019-05-05T00:11:45.265Z,95781.46
2019-05-05T00:14:15.479Z,95777.92
2019-05-05T00:16:45.511Z,95779.41
2019-05-05T00:19:19.152Z,95783.84
2019-05-05T00:21:44.664Z,95778.42
2019-05-05T00:24:15.055Z,95781.33
2019-05-05T00:26:43.239Z,95781.72
2019-05-05T00:29:11.677Z,95782.77
2019-05-05T00:31:40.074Z,95782.66
2019-05-05T00:34:08.548Z,95782.16
2019-05-05T00:36:37.006Z,95783.19
2019-05-05T00:39:08.407Z,95785.64
2019-05-05T00:41:36.874Z,95780.03
2019-05-05T00:44:05.543Z,95781.98
2019-05-05T00:46:50.944Z,95780.22
2019-05-05T00:49:19.476Z,95781.92
2019-05-05T00:51:47.862Z,95786.81
2019-05-05T00:54:16.260Z,95783.88
2019-05-05T00:56:45.147Z,95785.22
2019-05-05T00:59:15.390Z,95788.73
2019-05-05T01:01:47.836Z,95791.00
2019-05-05T01:04:18.253Z,95793.59
2019-05-05T01:06:46.812Z,95797.48
2019-05-05T01:09:19.859Z,95800.73
2019-05-05T01:11:48.449Z,95806.77
2019-05-05T01:14:17.182Z,95803.96
2019-05-05T01:16:45.715Z,95804.14
2019-05-05T01:19:15.014Z,95805.27
2019-05-05T01:21:45.431Z,95817.33
2019-05-05T01:24:14.382Z,95825.41
2019-05-05T01:26:44.588Z,95825.30
2019-05-05T01:29:14.693Z,95833.62
2019-05-05T01:31:45.215Z,95829.33
2019-05-05T01:34:15.371Z,95828.23
2019-05-05T01:36:45.156Z,95834.79
2019-05-05T01:39:21.602Z,95827.70
2019-05-05T01:41:51.638Z,95829.60
2019-05-05T01:44:20.098Z,95827.58
2019-05-05T01:46:48.515Z,95832.60
2019-05-05T01:49:16.928Z,95829.44
2019-05-05T01:51:45.510Z,95824.69
2019-05-05T01:54:14.566Z,95816.20
2019-05-05T01:56:44.510Z,95822.03
2019-05-05T01:59:14.383Z,95822.21
2019-05-05T02:01:44.573Z,95820.34
2019-05-05T02:04:14.462Z,95813.25
2019-05-05T02:06:44.322Z,95820.34
2019-05-05T02:09:15.713Z,95817.55
2019-05-05T02:11:45.306Z,95819.35
2019-05-05T02:14:15.610Z,95819.17
2019-05-05T02:16:45.183Z,95825.00
2019-05-05T02:19:14.326Z,95824.25
2019-05-05T02:21:42.823Z,95825.28
2019-05-05T02:24:11.234Z,95828.23
2019-05-05T02:26:39.698Z,95826.45
2019-05-05T02:29:26.066Z,95824.51
2019-05-05T02:31:58.759Z,95824.83
2019-05-05T02:34:28.869Z,95837.70
2019-05-05T02:36:57.292Z,95840.23
2019-05-05T02:39:25.771Z,95847.18
2019-05-05T02:41:56.216Z,95846.97
2019-05-05T02:44:26.766Z,95843.67
2019-05-05T02:46:59.843Z,95847.11
2019-05-05T02:49:29.089Z,95848.23
2019-05-05T02:51:59.348Z,95850.58
2019-05-05T02:54:28.776Z,95851.25
2019-05-05T02:56:57.510Z,95857.22
2019-05-05T02:59:39.350Z,95854.24
2019-05-05T03:02:14.361Z,95861.92
2019-05-05T03:04:44.389Z,95860.97
2019-05-05T03:07:17.338Z,95864.13
2019-05-05T03:09:47.472Z,95865.94
2019-05-05T03:12:17.964Z,95878.37
2019-05-05T03:14:47.322Z,95872.95
2019-05-05T03:17:16.246Z,95880.04
2019-05-05T03:19:45.384Z,95877.11
2019-05-05T03:22:14.826Z,95876.83
2019-05-05T03:24:44.665Z,95868.38
2019-05-05T03:27:14.301Z,95872.34
2019-05-05T03:29:44.172Z,95871.56
2019-05-05T03:32:16.128Z,95869.30
2019-05-05T03:34:44.552Z,95873.55
2019-05-05T03:37:14.619Z,95866.64
2019-05-05T03:39:45.002Z,95872.66
2019-05-05T03:42:21.261Z,95870.67
2019-05-05T03:44:51.383Z,95871.63
2019-05-05T03:47:20.514Z,95870.13
2019-05-05T03:49:49.138Z,95873.71
2019-05-05T03:52:17.604Z,95874.70
2019-05-05T03:54:46.148Z,95873.08
2019-05-05T03:57:15.094Z,95876.87
2019-05-05T03:59:44.842Z,95877.13
2019-05-05T04:02:17.887Z,95881.64
2019-05-05T04:04:48.139Z,95878.52
2019-05-05T04:07:16.654Z,95877.57
2019-05-05T04:09:45.113Z,95880.27
2019-05-05T04:12:14.346Z,95885.59
2019-05-05T04:14:44.582Z,95880.98
2019-05-05T04:17:15.277Z,95887.89
2019-05-05T04:19:45.493Z,95881.23
2019-05-05T04:22:13.886Z,95883.22
2019-05-05T04:24:43.554Z,95886.87
2019-05-05T04:27:14.404Z,95889.63
2019-05-05T04:29:43.923Z,95890.30
2019-05-05T04:32:14.057Z,95892.97
2019-05-05T04:34:43.900Z,95891.94
2019-05-05T04:37:14.651Z,95898.64
2019-05-05T04:39:44.350Z,95907.43
2019-05-05T04:42:14.184Z,95905.27
2019-05-05T04:44:44.664Z,95910.20
2019-05-05T04:47:20.414Z,95912.78
2019-05-05T04:49:50.479Z,95912.75
2019-05-05T04:52:23.691Z,95916.19
2019-05-05T04:54:55.717Z,95915.72
2019-05-05T04:57:24.147Z,95914.83
2019-05-05T04:59:53.962Z,95924.28
2019-05-05T05:02:30.406Z,95925.34
2019-05-05T05:05:06.054Z,95923.25
2019-05-05T05:07:34.574Z,95932.08
2019-05-05T05:10:04.433Z,95937.41
2019-05-05T05:12:34.151Z,95939.08
2019-05-05T05:15:04.306Z,95936.36
2019-05-05T05:17:34.456Z,95931.61
2019-05-05T05:20:03.778Z,95940.61
2019-05-05T05:22:33.425Z,95936.72
2019-05-05T05:25:04.303Z,95944.09
2019-05-05T05:27:33.585Z,95941.61
2019-05-05T05:30:02.100Z,95943.41
2019-05-05T05:32:30.708Z,95942.73
2019-05-05T05:34:59.096Z,95945.05
2019-05-05T05:37:27.488Z,95946.17
2019-05-05T05:40:00.487Z,95957.98
2019-05-05T05:42:28.892Z,95954.00
2019-05-05T05:44:58.933Z,95954.00
2019-05-05T05:47:33.849Z,95960.21
2019-05-05T05:50:09.921Z,95966.13
2019-05-05T05:52:38.375Z,95973.00
2019-05-05T05:55:07.736Z,95971.34
2019-05-05T05:57:36.139Z,95976.21
2019-05-05T06:00:07.047Z,95976.53
2019-05-05T06:02:35.728Z,95982.59
2019-05-05T06:05:05.568Z,95985.67
2019-05-05T06:07:33.983Z,95988.20
2019-05-05T06:10:03.727Z,95986.47
2019-05-05T06:12:33.625Z,95999.14
2019-05-05T06:15:03.870Z,95998.02
2019-05-05T06:17:34.270Z,95998.33
2019-05-05T06:20:04.063Z,95999.23
2019-05-05T06:22:35.850Z,96005.66
2019-05-05T06:25:06.795Z,96003.66
2019-05-05T06:27:35.352Z,96006.48
2019-05-05T06:30:05.169Z,96003.76
2019-05-05T06:32:34.246Z,96007.78
2019-05-05T06:35:03.684Z,96007.16
2019-05-05T06:37:34.135Z,96005.84
2019-05-05T06:40:04.206Z,96011.95
2019-05-05T06:42:46.614Z,96018.05
2019-05-05T06:45:16.728Z,96016.92
2019-05-05T06:47:45.124Z,96018.64
2019-05-05T06:50:14.260Z,96022.67
2019-05-05T06:52:45.120Z,96020.00
2019-05-05T06:55:14.081Z,96025.71
2019-05-05T06:57:44.403Z,96029.23
2019-05-05T07:00:13.954Z,96033.93
2019-05-05T07:02:44.307Z,96037.91
2019-05-05T07:05:14.311Z,96035.50
2019-05-05T07:07:43.529Z,96041.44
2019-05-05T07:10:14.037Z,96045.52
2019-05-05T07:12:44.003Z,96047.59
2019-05-05T07:15:14.516Z,96051.05
2019-05-05T07:17:44.270Z,96051.30
2019-05-05T07:20:13.722Z,96052.91
2019-05-05T07:22:56.250Z,96054.48
2019-05-05T07:25:13.736Z,96058.11
2019-05-05T07:27:44.103Z,96059.05
2019-05-05T07:30:13.698Z,96060.83
2019-05-05T07:32:44.188Z,96071.73
2019-05-05T07:35:14.669Z,96066.38
2019-05-05T07:37:44.947Z,96061.13
2019-05-05T07:40:13.688Z,96059.14
2019-05-05T07:42:44.043Z,96065.11
2019-05-05T07:45:21.817Z,96066.81
2019-05-05T07:47:43.696Z,96068.48
2019-05-05T07:50:26.503Z,96066.92
2019-05-05T07:52:43.904Z,96068.48
2019-05-05T07:55:14.350Z,96068.03
2019-05-05T07:57:43.545Z,96073.67
2019-05-05T08:00:14.658Z,96069.27
2019-05-05T08:02:43.873Z,96076.33
2019-05-05T08:05:14.116Z,96072.04
2019-05-05T08:07:44.508Z,96070.44
2019-05-05T08:10:13.794Z,96073.13
2019-05-05T08:12:43.624Z,96072.84
2019-05-05T08:15:14.754Z,96077.60
2019-05-05T08:18:01.110Z,96077.78
2019-05-05T08:20:31.149Z,96078.13
2019-05-05T08:22:59.547Z,96077.81
2019-05-05T08:25:45.252Z,96082.14
2019-05-05T08:28:20.692Z,96081.20
2019-05-05T08:30:50.768Z,96081.55
2019-05-05T08:33:19.201Z,96085.70
2019-05-05T08:35:47.668Z,96084.22
2019-05-05T08:38:16.501Z,96083.57
2019-05-05T08:40:44.964Z,96084.13
2019-05-05T08:43:13.927Z,96081.52
2019-05-05T08:45:44.363Z,96083.36
2019-05-05T08:48:14.219Z,96089.81
2019-05-05T08:50:43.901Z,96087.20
2019-05-05T08:53:13.818Z,96088.38
2019-05-05T08:55:44.342Z,96087.41
2019-05-05T08:58:14.646Z,96087.95
2019-05-05T09:00:44.431Z,96088.97
2019-05-05T09:03:13.859Z,96085.74
2019-05-05T09:05:43.788Z,96085.56
2019-05-05T09:08:13.885Z,96087.89
2019-05-05T09:10:44.632Z,96082.81
2019-05-05T09:13:14.333Z,96091.59
2019-05-05T09:15:44.263Z,96085.05
2019-05-05T09:18:14.169Z,96084.41
2019-05-05T09:20:44.557Z,96086.61
2019-05-05T09:23:14.751Z,96089.92
2019-05-05T09:25:50.987Z,96093.72
2019-05-05T09:28:27.135Z,96085.31
2019-05-05T09:30:55.572Z,96084.00
2019-05-05T09:33:24.779Z,96091.25
2019-05-05T09:35:54.215Z,96088.77
2019-05-05T09:38:23.904Z,96085.98
2019-05-05T09:40:54.277Z,96083.85
2019-05-05T09:43:24.035Z,96091.56
2019-05-05T09:45:54.019Z,96095.33
2019-05-05T09:48:24.265Z,96097.60
2019-05-05T09:50:54.060Z,96096.28
2019-05-05T09:53:23.781Z,96094.16
2019-05-05T09:55:54.996Z,96096.16
2019-05-05T09:58:24.175Z,96096.38
2019-05-05T10:00:54.713Z,96095.05
2019-05-05T10:03:22.989Z,96091.28
2019-05-05T10:05:53.664Z,96100.37
2019-05-05T10:08:23.673Z,96096.62
2019-05-05T10:10:54.751Z,96091.02
2019-05-05T10:13:23.624Z,96091.34
2019-05-05T10:15:52.022Z,96096.92
2019-05-05T10:18:20.419Z,96094.27
2019-05-05T10:20:48.951Z,96096.74
2019-05-05T10:23:17.412Z,96097.06
2019-05-05T10:25:47.451Z,96098.72
2019-05-05T10:28:15.907Z,96098.08
2019-05-05T10:30:44.369Z,96097.73
2019-05-05T10:33:14.280Z,96103.00
2019-05-05T10:35:43.762Z,96096.13
2019-05-05T10:38:14.104Z,96095.32
2019-05-05T10:40:44.486Z,96093.84
2019-05-05T10:43:14.663Z,96100.89
2019-05-05T10:45:44.090Z,96104.18
2019-05-05T10:48:14.393Z,96101.67
2019-05-05T10:50:44.404Z,96100.86
2019-05-05T10:53:13.636Z,96102.68
2019-05-05T10:55:42.289Z,96104.48
2019-05-05T10:58:10.790Z,96106.15
2019-05-05T11:00:45.064Z,96102.35
2019-05-05T11:03:14.878Z,96103.27
2019-05-05T11:05:45.017Z,96105.76
2019-05-05T11:08:13.846Z,96098.73
2019-05-05T11:10:44.570Z,96099.42
2019-05-05T11:13:12.958Z,96102.41
2019-05-05T11:15:41.420Z,96100.23
2019-05-05T11:18:10.383Z,96096.78
2019-05-05T11:20:38.811Z,96101.77
2019-05-05T11:23:07.208Z,96104.80
2019-05-05T11:25:35.605Z,96110.08
2019-05-05T11:28:05.726Z,96104.15
2019-05-05T11:30:36.831Z,96103.84
2019-05-05T11:33:23.810Z,96102.02
2019-05-05T11:36:04.464Z,96099.88
2019-05-05T11:38:33.928Z,96094.26
2019-05-05T11:41:04.674Z,96103.33
2019-05-05T11:43:33.822Z,96101.15
2019-05-05T11:46:02.534Z,96101.50
2019-05-05T11:48:34.469Z,96104.80
2019-05-05T11:51:04.541Z,96112.41
2019-05-05T11:53:33.964Z,96107.28
2019-05-05T11:56:04.190Z,96109.73
2019-05-05T11:58:34.106Z,96105.11
2019-05-05T12:01:03.758Z,96108.90
2019-05-05T12:03:34.040Z,96111.81
2019-05-05T12:06:04.036Z,96106.92
2019-05-05T12:08:34.577Z,96109.83
2019-05-05T12:11:04.679Z,96101.60
2019-05-05T12:13:33.582Z,96105.05
2019-05-05T12:16:04.572Z,96106.17
2019-05-05T12:18:34.298Z,96113.09
2019-05-05T12:21:04.868Z,96116.23
2019-05-05T12:23:34.051Z,96111.58
2019-05-05T12:26:04.753Z,96113.91
2019-05-05T12:28:34.825Z,96116.18
2019-05-05T12:31:04.943Z,96117.08
2019-05-05T12:33:33.678Z,96121.71
2019-05-05T12:36:04.329Z,96123.80
2019-05-05T12:38:34.603Z,96113.41
2019-05-05T12:41:04.245Z,96113.17
2019-05-05T12:43:34.039Z,96108.88
2019-05-05T12:46:07.457Z,96111.80
2019-05-05T12:48:37.509Z,96111.83
2019-05-05T12:51:07.553Z,96120.39
2019-05-05T12:53:36.853Z,96124.34
2019-05-05T12:56:05.246Z,96121.47
2019-05-05T12:58:34.005Z,96114.02
2019-05-05T13:01:14.315Z,96118.70
2019-05-05T13:03:43.733Z,96126.73
2019-05-05T13:06:14.472Z,96134.38
2019-05-05T13:08:44.381Z,96139.70
2019-05-05T13:11:12.880Z,96139.38
2019-05-05T13:13:41.349Z,96146.87
2019-05-05T13:16:09.918Z,96138.91
2019-05-05T13:18:38.693Z,96142.41
2019-05-05T13:21:08.887Z,96139.52
2019-05-05T13:23:39.049Z,96147.71
2019-05-05T13:26:11.619Z,96145.13
2019-05-05T13:28:40.010Z,96145.31
2019-05-05T13:31:08.517Z,96152.61
2019-05-05T13:33:37.394Z,96154.65
2019-05-05T13:36:05.796Z,96148.25
2019-05-05T13:38:34.897Z,96151.34
2019-05-05T13:41:03.805Z,96148.25
2019-05-05T13:43:34.299Z,96149.61
2019-05-05T13:46:04.588Z,96153.64
2019-05-05T13:48:33.848Z,96155.97
2019-05-05T13:51:16.045Z,96162.58
2019-05-05T13:53:44.885Z,96162.80
2019-05-05T13:56:15.351Z,96154.67
2019-05-05T13:58:43.859Z,96156.22
2019-05-05T14:01:14.455Z,96151.83
2019-05-05T14:03:45.653Z,96152.14
2019-05-05T14:06:14.085Z,96162.88
2019-05-05T14:08:44.593Z,96163.70
2019-05-05T14:11:14.216Z,96162.43
2019-05-05T14:13:44.857Z,96165.50
2019-05-05T14:16:14.454Z,96166.77
2019-05-05T14:18:42.945Z,96169.05
2019-05-05T14:21:11.372Z,96173.25
2019-05-05T14:23:59.191Z,96173.99
2019-05-05T14:26:28.526Z,96177.19
2019-05-05T14:28:57.735Z,96173.49
2019-05-05T14:31:34.523Z,96178.50
2019-05-05T14:34:04.611Z,96181.66
2019-05-05T14:36:37.456Z,96178.19
2019-05-05T14:39:09.431Z,96186.71
2019-05-05T14:41:37.897Z,96187.17
2019-05-05T14:44:06.371Z,96189.17
2019-05-05T14:46:36.349Z,96184.94
2019-05-05T14:49:05.868Z,96179.17
2019-05-05T14:51:34.383Z,96182.09
2019-05-05T14:54:04.591Z,96178.64
2019-05-05T14:56:36.362Z,96175.13
2019-05-05T14:59:03.753Z,96179.33
2019-05-05T15:01:34.434Z,96180.78
2019-05-05T15:04:04.322Z,96175.66
2019-05-05T15:06:40.937Z,96181.60
2019-05-05T15:09:16.939Z,96183.80
2019-05-05T15:11:59.450Z,96189.38
2019-05-05T15:14:27.853Z,96192.61
2019-05-05T15:16:56.255Z,96188.88
2019-05-05T15:19:24.947Z,96189.02
2019-05-05T15:21:56.326Z,96191.66
2019-05-05T15:24:27.487Z,96199.79
2019-05-05T15:26:55.985Z,96199.72
2019-05-05T15:29:25.216Z,96194.43
2019-05-05T15:31:53.998Z,96192.39
2019-05-05T15:34:24.060Z,96192.92
2019-05-05T15:36:54.429Z,96188.83
2019-05-05T15:39:24.605Z,96189.94
2019-05-05T15:41:54.206Z,96185.81
2019-05-05T15:44:24.139Z,96189.59
2019-05-05T15:46:57.587Z,96189.73
2019-05-05T15:49:23.145Z,96187.92
2019-05-05T15:51:53.798Z,96185.64
2019-05-05T15:54:23.727Z,96186.92
2019-05-05T15:57:02.984Z,96193.25
2019-05-05T15:59:24.449Z,96193.97
2019-05-05T16:01:54.772Z,96203.09
2019-05-05T16:04:23.583Z,96206.96
2019-05-05T16:06:54.116Z,96211.19
2019-05-05T16:09:22.773Z,96210.16
2019-05-05T16:11:51.222Z,96211.25
2019-05-05T16:14:20.015Z,96211.66
2019-05-05T16:17:04.491Z,96216.33
2019-05-05T16:19:34.131Z,96221.86
2019-05-05T16:22:04.191Z,96219.14
2019-05-05T16:24:36.846Z,96222.39
2019-05-05T16:27:18.395Z,96214.46
2019-05-05T16:29:35.405Z,96222.84
2019-05-05T16:32:08.139Z,96221.66
2019-05-05T16:34:34.190Z,96216.77
2019-05-05T16:37:03.842Z,96214.77
2019-05-05T16:39:33.626Z,96223.13
2019-05-05T16:42:02.116Z,96221.36
2019-05-05T16:44:30.499Z,96229.62
2019-05-05T16:46:59.008Z,96232.92
2019-05-05T16:49:27.416Z,96228.39
2019-05-05T16:51:57.536Z,96226.98
2019-05-05T16:54:27.596Z,96229.02
2019-05-05T16:56:56.076Z,96232.07
2019-05-05T16:59:24.556Z,96232.28
2019-05-05T17:01:54.079Z,96243.84
2019-05-05T17:04:24.355Z,96246.47
2019-05-05T17:06:54.613Z,96244.66
2019-05-05T17:09:24.018Z,96240.23
2019-05-05T17:12:10.986Z,96247.84
2019-05-05T17:14:45.058Z,96248.39
2019-05-05T17:17:27.084Z,96247.34
2019-05-05T17:19:57.182Z,96246.33
2019-05-05T17:22:29.890Z,96254.61
2019-05-05T17:24:59.028Z,96257.79
2019-05-05T17:27:27.607Z,96255.16
2019-05-05T17:29:56.012Z,96261.03
2019-05-05T17:32:24.930Z,96253.52
2019-05-05T17:34:54.100Z,96249.16
2019-05-05T17:37:23.933Z,96242.80
2019-05-05T17:39:56.963Z,96243.97
2019-05-05T17:42:34.648Z,96244.85
2019-05-05T17:45:19.598Z,96246.31
2019-05-05T17:47:56.194Z,96247.33
2019-05-05T17:50:43.975Z,96246.59
2019-05-05T17:53:14.898Z,96248.39
2019-05-05T17:55:44.413Z,96250.59
2019-05-05T17:58:13.722Z,96255.29
2019-05-05T18:00:47.061Z,96263.72
2019-05-05T18:03:14.808Z,96265.33
2019-05-05T18:05:54.619Z,96262.34
2019-05-05T18:08:41.220Z,96266.16
2019-05-05T18:11:13.943Z,96271.47
2019-05-05T18:13:46.606Z,96265.86
2019-05-05T18:16:16.767Z,96270.84
2019-05-05T18:18:45.194Z,96267.53
2019-05-05T18:21:14.216Z,96269.73
2019-05-05T18:23:43.853Z,96276.65
2019-05-05T18:26:13.710Z,96277.14
2019-05-05T18:28:44.350Z,96277.14
2019-05-05T18:31:13.887Z,96283.41
2019-05-05T18:33:44.441Z,96284.03
2019-05-05T18:36:14.192Z,96283.97
2019-05-05T18:38:44.408Z,96289.48
2019-05-05T18:41:14.560Z,96293.84
2019-05-05T18:46:27.975Z,96301.70
2019-05-05T18:48:56.397Z,96301.07
2019-05-05T18:51:25.082Z,96304.44
2019-05-05T18:53:55.033Z,96309.69
2019-05-05T18:56:23.790Z,96301.83
2019-05-05T18:58:54.094Z,96307.42
2019-05-05T19:01:39.419Z,96305.30
2019-05-05T19:04:09.449Z,96304.95
2019-05-05T19:06:51.806Z,96305.58
2019-05-05T19:09:24.954Z,96299.91
2019-05-05T19:11:54.550Z,96299.84
2019-05-05T19:14:24.321Z,96305.16
2019-05-05T19:16:55.705Z,96309.88
2019-05-05T19:19:27.122Z,96314.20
2019-05-05T19:21:55.815Z,96315.74
2019-05-05T19:24:24.232Z,96315.74
2019-05-05T19:26:54.230Z,96318.89
2019-05-05T19:29:24.290Z,96318.76
2019-05-05T19:31:54.637Z,96316.95
2019-05-05T19:34:24.063Z,96319.75
2019-05-05T19:36:54.575Z,96323.00
2019-05-05T19:39:24.279Z,96319.45
2019-05-05T19:41:54.317Z,96317.95
2019-05-05T19:44:25.871Z,96317.75
2019-05-05T19:46:57.394Z,96323.27
2019-05-05T19:49:25.786Z,96321.88
2019-05-05T19:51:54.399Z,96316.90
2019-05-05T19:54:22.962Z,96314.90
2019-05-05T19:56:51.258Z,96319.45
2019-05-05T19:59:19.675Z,96321.52
2019-05-05T20:01:48.150Z,96322.89
2019-05-05T20:04:16.552Z,96316.89
2019-05-05T20:06:45.212Z,96323.25
2019-05-05T20:09:14.261Z,96324.69
2019-05-05T20:11:43.727Z,96325.31
2019-05-05T20:14:14.827Z,96317.44
2019-05-05T20:17:04.245Z,96324.69
2019-05-05T20:19:34.811Z,96324.00
2019-05-05T20:22:03.278Z,96327.24
2019-05-05T20:24:33.579Z,96332.12
2019-05-05T20:27:04.321Z,96319.73
2019-05-05T20:29:35.057Z,96319.45
2019-05-05T20:32:04.335Z,96324.07
2019-05-05T20:34:34.420Z,96322.56
2019-05-05T20:37:10.349Z,96322.06
2019-05-05T20:39:38.914Z,96327.44
2019-05-05T20:42:08.215Z,96326.42
2019-05-05T20:44:37.252Z,96327.04
2019-05-05T20:47:05.748Z,96325.16
2019-05-05T20:49:34.658Z,96326.48
2019-05-05T20:52:03.848Z,96319.30
2019-05-05T20:54:32.480Z,96320.55
2019-05-05T20:57:04.429Z,96320.42
2019-05-05T20:59:34.270Z,96318.49
2019-05-05T21:02:04.476Z,96324.20
2019-05-05T21:04:34.480Z,96327.20
2019-05-05T21:07:04.425Z,96321.39
2019-05-05T21:09:34.441Z,96317.66
2019-05-05T21:12:04.728Z,96320.50
2019-05-05T21:14:37.231Z,96321.39
2019-05-05T21:17:04.156Z,96318.63
2019-05-05T21:19:34.618Z,96316.90
2019-05-05T21:22:21.455Z,96314.77
2019-05-05T21:24:50.178Z,96315.09
2019-05-05T21:27:18.572Z,96306.00
2019-05-05T21:29:47.448Z,96305.37
2019-05-05T21:32:15.850Z,96311.14
2019-05-05T21:34:44.537Z,96303.06
2019-05-05T21:37:14.123Z,96309.80
2019-05-05T21:39:42.714Z,96304.41
2019-05-05T21:42:11.107Z,96305.23
2019-05-05T21:44:39.545Z,96301.30
2019-05-05T21:47:07.930Z,96304.70
2019-05-05T21:49:36.320Z,96305.16
2019-05-05T21:52:09.234Z,96308.02
2019-05-05T21:54:51.471Z,96304.48
2019-05-05T21:57:27.435Z,96308.59
2019-05-05T21:59:58.746Z,96307.42
2019-05-05T22:02:25.961Z,96301.20
2019-05-05T22:04:54.578Z,96304.52
2019-05-05T22:07:24.110Z,96303.00
2019-05-05T22:09:54.423Z,96300.94
2019-05-05T22:12:24.315Z,96306.95
2019-05-05T22:14:54.974Z,96306.20
2019-05-05T22:17:23.034Z,96303.77
2019-05-05T22:20:04.074Z,96308.47
2019-05-05T22:22:36.234Z,96310.20
2019-05-05T22:25:05.350Z,96309.71
2019-05-05T22:27:34.553Z,96316.50
2019-05-05T22:30:09.878Z,96313.88
2019-05-05T22:32:34.348Z,96310.27
2019-05-05T22:35:03.567Z,96308.70
2019-05-05T22:37:32.030Z,96300.20
2019-05-05T22:40:00.428Z,96299.22
2019-05-05T22:42:28.890Z,96294.46
2019-05-05T22:44:57.288Z,96297.34
2019-05-05T22:47:25.686Z,96294.27
2019-05-05T22:49:54.269Z,96291.97
2019-05-05T22:52:25.272Z,96292.46
2019-05-05T22:54:52.925Z,96290.33
2019-05-05T22:57:21.342Z,96288.45
2019-05-05T22:59:49.903Z,96293.70
2019-05-05T23:02:19.942Z,96291.97
2019-05-05T23:04:58.929Z,96283.77
2019-05-05T23:07:30.637Z,96287.02
2019-05-05T23:09:59.030Z,96287.28
2019-05-05T23:12:27.767Z,96288.53
2019-05-05T23:14:56.146Z,96287.84
2019-05-05T23:17:29.276Z,96295.97
2019-05-05T23:20:05.087Z,96294.82
2019-05-05T23:22:37.841Z,96301.91
2019-05-05T23:25:11.387Z,96295.09
2019-05-05T23:27:49.586Z,96298.47
2019-05-05T23:30:23.579Z,96293.77
2019-05-05T23:32:51.588Z,96297.22
2019-05-05T23:35:19.990Z,96289.97
2019-05-05T23:37:48.472Z,96294.82
2019-05-05T23:40:25.311Z,96293.02
2019-05-05T23:42:54.461Z,96297.45
2019-05-05T23:45:24.868Z,96291.15
2019-05-05T23:47:54.510Z,96294.89
2019-05-05T23:50:23.853Z,96295.64
2019-05-05T23:52:54.307Z,96299.70
2019-05-05T23:55:23.999Z,96297.45
2019-05-05T23:57:54.636Z,96294.95
